Time;durP1;ratioP1;P1;durP2;ratioP2;P2;SDS_P1;SDS_P2;PMS_P1;PMS_P2;Temp;Humidity;BMP_temperature;BMP_pressure;BME280_temperature;BME280_humidity;BME280_pressure;Samples;Min_cycle;Max_cycle;Signal;HPM_P1;HPM_P2
2023/08/16 00:00:18;;;;;;;4.70;3.80;;;;;;;20.88;100.00;100872.45;109381;1251;72833;-62
2023/08/16 00:02:46;;;;;;;7.40;3.80;;;;;;;20.87;100.00;100872.21;109405;1250;58840;-61
2023/08/16 00:05:14;;;;;;;5.70;4.30;;;;;;;20.85;100.00;100870.38;109424;1251;59006;-61
2023/08/16 00:07:42;;;;;;;5.00;3.70;;;;;;;20.83;100.00;100869.27;109294;1251;73469;-63
2023/08/16 00:10:11;;;;;;;4.50;3.60;;;;;;;20.82;100.00;100869.84;109385;1251;65673;-61
2023/08/16 00:12:38;;;;;;;5.10;4.00;;;;;;;20.79;100.00;100867.23;109385;1251;72686;-61
2023/08/16 00:15:07;;;;;;;5.50;4.30;;;;;;;20.79;100.00;100862.72;109368;1251;61742;-61
2023/08/16 00:17:34;;;;;;;5.60;4.20;;;;;;;20.77;100.00;100862.23;109354;1251;58735;-64
2023/08/16 00:20:04;;;;;;;5.40;4.30;;;;;;;20.77;100.00;100865.57;109377;1251;71667;-61
2023/08/16 00:22:32;;;;;;;6.90;4.20;;;;;;;20.74;100.00;100862.38;109398;1251;65494;-62
2023/08/16 00:25:00;;;;;;;7.10;4.00;;;;;;;20.73;100.00;100864.90;109374;1251;72705;-61
2023/08/16 00:27:27;;;;;;;5.10;4.10;;;;;;;20.71;100.00;100868.66;109382;1252;60449;-64
2023/08/16 00:29:56;;;;;;;7.60;4.40;;;;;;;20.71;100.00;100868.19;109314;1251;60555;-61
2023/08/16 00:32:23;;;;;;;8.50;4.20;;;;;;;20.70;100.00;100863.52;109381;1251;73101;-62
2023/08/16 00:34:51;;;;;;;6.30;4.90;;;;;;;20.69;100.00;100865.26;109431;1251;66122;-61
2023/08/16 00:37:19;;;;;;;5.20;4.20;;;;;;;20.67;100.00;100863.45;109349;1251;72794;-61
2023/08/16 00:39:47;;;;;;;8.50;4.70;;;;;;;20.65;100.00;100863.63;109328;1251;61668;-66
2023/08/16 00:42:14;;;;;;;6.20;4.40;;;;;;;20.63;100.00;100861.58;109368;1255;59365;-61
2023/08/16 00:44:42;;;;;;;6.00;4.40;;;;;;;20.62;100.00;100860.40;109406;1251;73159;-61
2023/08/16 00:47:09;;;;;;;5.60;4.20;;;;;;;20.61;100.00;100860.70;109421;1251;66935;-62
2023/08/16 00:49:39;;;;;;;5.80;4.60;;;;;;;20.59;100.00;100859.48;109385;1251;72724;-66
2023/08/16 00:52:06;;;;;;;7.00;4.90;;;;;;;20.60;100.00;100864.64;109334;1256;60443;-62
2023/08/16 00:54:34;;;;;;;8.80;4.80;;;;;;;20.59;100.00;100865.68;109241;1251;60042;-63
2023/08/16 00:57:02;;;;;;;6.80;4.40;;;;;;;20.57;100.00;100862.48;109311;1250;72834;-62
2023/08/16 00:59:30;;;;;;;8.30;4.40;;;;;;;20.55;100.00;100863.13;109425;1251;66844;-62
2023/08/16 01:01:57;;;;;;;5.60;4.20;;;;;;;20.53;100.00;100861.27;109315;1251;73386;-65
2023/08/16 01:04:25;;;;;;;5.40;4.60;;;;;;;20.51;100.00;100861.92;109364;1251;60567;-62
2023/08/16 01:06:57;;;;;;;6.30;5.20;;;;;;;20.48;100.00;100859.45;109153;1251;60653;-62
2023/08/16 01:09:25;;;;;;;5.40;4.60;;;;;;;20.46;100.00;100856.44;109406;1251;73187;-62
2023/08/16 01:12:15;;;;;;;6.30;4.80;;;;;;;20.43;100.00;100855.27;109268;1251;67445;-66
2023/08/16 01:14:56;;;;;;;5.60;4.50;;;;;;;20.39;100.00;100859.36;109389;1250;72724;-61
2023/08/16 01:17:24;;;;;;;;;;;;;;;20.38;100.00;100858.17;109347;1251;59652;-63
2023/08/16 01:19:53;;;;;;;8.00;5.50;;;;;;;20.38;100.00;100856.74;109387;1251;58574;-61
2023/08/16 01:22:39;;;;;;;6.50;5.20;;;;;;;20.37;100.00;100860.11;109379;1251;71798;-62
2023/08/16 01:25:13;;;;;;;9.20;4.80;;;;;;;20.36;100.00;100857.73;109316;1251;67032;-63
2023/08/16 01:27:41;;;;;;;9.20;5.30;;;;;;;20.36;100.00;100853.95;109348;1251;72709;-62
2023/08/16 01:30:09;;;;;;;7.00;5.30;;;;;;;20.38;100.00;100851.80;109256;1251;62167;-62
2023/08/16 01:32:38;;;;;;;7.80;5.00;;;;;;;20.37;100.00;100850.73;109356;1251;60541;-63
2023/08/16 01:35:06;;;;;;;8.00;5.00;;;;;;;20.36;100.00;100848.29;109181;1252;72321;-62
2023/08/16 01:37:33;;;;;;;6.80;5.20;;;;;;;20.35;100.00;100854.73;109361;1251;65652;-62
2023/08/16 01:40:04;;;;;;;5.70;4.20;;;;;;;20.35;100.00;100850.70;109357;1251;71317;-62
2023/08/16 01:42:32;;;;;;;5.90;4.60;;;;;;;20.32;100.00;100849.89;109346;1251;61800;-61
2023/08/16 01:45:00;;;;;;;7.70;4.80;;;;;;;20.27;100.00;100850.00;109326;1251;61037;-62
2023/08/16 01:47:28;;;;;;;6.10;4.90;;;;;;;20.22;100.00;100850.26;109279;1251;73865;-62
2023/08/16 01:49:56;;;;;;;6.30;5.00;;;;;;;20.17;100.00;100852.45;109380;1251;67433;-62
2023/08/16 01:52:25;;;;;;;7.70;5.30;;;;;;;20.13;100.00;100848.45;109376;1251;71441;-62
2023/08/16 01:54:53;;;;;;;6.10;5.00;;;;;;;20.10;100.00;100842.96;109252;1251;60429;-63
2023/08/16 01:57:21;;;;;;;6.00;4.60;;;;;;;20.08;100.00;100845.10;109357;1256;60077;-62
2023/08/16 01:59:49;;;;;;;5.30;4.70;;;;;;;20.05;100.00;100844.94;109370;1251;72654;-62
2023/08/16 02:02:17;;;;;;;5.90;4.60;;;;;;;20.01;100.00;100844.84;109375;1251;66058;-62
2023/08/16 02:04:44;;;;;;;6.60;5.20;;;;;;;19.98;100.00;100849.22;109347;1250;72671;-62
2023/08/16 02:07:12;;;;;;;6.00;5.40;;;;;;;19.98;100.00;100852.12;109285;1254;61684;-62
2023/08/16 02:09:40;;;;;;;7.70;6.10;;;;;;;19.99;100.00;100852.04;109434;1251;60009;-63
2023/08/16 02:12:07;;;;;;;6.10;5.10;;;;;;;20.02;100.00;100854.80;109361;1251;73909;-62
2023/08/16 02:14:35;;;;;;;7.40;5.80;;;;;;;20.03;100.00;100855.92;109365;1251;66922;-61
2023/08/16 02:17:03;;;;;;;6.40;5.40;;;;;;;20.05;100.00;100854.83;109290;1257;71501;-61
2023/08/16 02:19:30;;;;;;;7.00;4.70;;;;;;;20.07;100.00;100857.36;109345;1251;61807;-62
2023/08/16 02:21:58;;;;;;;7.10;4.50;;;;;;;20.08;100.00;100852.30;109373;1251;58803;-62
2023/08/16 02:24:25;;;;;;;6.70;4.60;;;;;;;20.07;100.00;100857.14;109363;1256;72631;-64
2023/08/16 02:26:53;;;;;;;8.30;5.50;;;;;;;20.06;100.00;100860.45;109311;1255;65748;-63
2023/08/16 02:29:21;;;;;;;6.40;5.30;;;;;;;20.05;100.00;100857.11;109379;1251;72737;-62
2023/08/16 02:31:48;;;;;;;6.10;4.90;;;;;;;20.06;100.00;100856.48;109371;1254;61769;-61
2023/08/16 02:34:16;;;;;;;6.70;5.60;;;;;;;20.03;100.00;100859.06;109382;1251;58765;-62
2023/08/16 02:36:44;;;;;;;6.10;4.90;;;;;;;19.99;100.00;100859.13;109337;1251;73855;-64
2023/08/16 02:39:12;;;;;;;6.50;4.80;;;;;;;19.97;100.00;100857.13;109369;1251;67142;-62
2023/08/16 02:41:39;;;;;;;6.10;5.00;;;;;;;19.97;100.00;100859.94;109387;1254;70723;-62
2023/08/16 02:44:07;;;;;;;6.10;5.10;;;;;;;20.00;100.00;100862.81;109354;1251;60095;-62
2023/08/16 02:46:35;;;;;;;7.60;6.00;;;;;;;20.05;100.00;100865.98;109331;1255;59493;-66
2023/08/16 02:49:03;;;;;;;7.00;6.20;;;;;;;20.08;100.00;100864.31;109350;1251;74437;-62
2023/08/16 02:51:31;;;;;;;8.70;5.70;;;;;;;20.11;100.00;100864.08;109402;1251;67053;-62
2023/08/16 02:53:59;;;;;;;5.90;5.10;;;;;;;20.15;100.00;100864.20;109370;1251;72640;-62
2023/08/16 02:56:26;;;;;;;7.10;5.40;;;;;;;20.20;100.00;100861.92;109300;1251;60337;-62
2023/08/16 02:58:54;;;;;;;10.20;6.70;;;;;;;20.26;100.00;100865.24;109286;1251;60153;-63
2023/08/16 03:01:22;;;;;;;7.70;6.30;;;;;;;20.33;100.00;100863.31;109439;1251;72630;-62
2023/08/16 03:03:50;;;;;;;10.50;6.30;;;;;;;20.44;100.00;100865.08;109399;1255;66976;-61
2023/08/16 03:06:17;;;;;;;8.30;5.80;;;;;;;20.59;100.00;100862.92;109291;1251;72703;-65
2023/08/16 03:08:45;;;;;;;11.10;6.20;;;;;;;20.74;100.00;100866.41;109373;1251;61773;-65
2023/08/16 03:11:12;;;;;;;6.90;5.90;;;;;;;20.89;100.00;100862.92;109332;1251;59059;-62
2023/08/16 03:13:40;;;;;;;9.30;5.50;;;;;;;21.03;100.00;100862.61;109391;1251;73884;-62
2023/08/16 03:16:08;;;;;;;9.60;6.60;;;;;;;21.16;100.00;100861.52;109416;1251;67080;-62
2023/08/16 03:18:35;;;;;;;10.50;7.20;;;;;;;21.28;100.00;100856.48;109281;1254;71457;-62
2023/08/16 03:21:03;;;;;;;6.60;5.90;;;;;;;21.44;100.00;100859.90;109323;1251;61772;-66
2023/08/16 03:23:31;;;;;;;13.00;5.60;;;;;;;21.59;100.00;100857.06;109394;1256;60100;-62
2023/08/16 03:25:58;;;;;;;7.20;6.30;;;;;;;21.82;100.00;100861.34;109382;1251;72631;-62
2023/08/16 03:28:26;;;;;;;10.40;5.90;;;;;;;22.12;100.00;100862.90;109365;1251;66711;-66
2023/08/16 03:30:54;;;;;;;8.90;6.20;;;;;;;22.51;100.00;100861.67;109339;1254;71917;-64
2023/08/16 03:33:22;;;;;;;7.40;6.20;;;;;;;23.12;100.00;100862.35;109364;1254;61276;-62
2023/08/16 03:35:51;;;;;;;6.80;6.10;;;;;;;24.00;100.00;100858.69;109443;1251;58599;-62
2023/08/16 03:38:19;;;;;;;7.90;6.20;;;;;;;25.02;100.00;100851.00;109358;1251;73910;-67
2023/08/16 03:40:46;;;;;;;9.10;6.30;;;;;;;26.09;100.00;100840.97;109348;1251;68343;-64
2023/08/16 03:43:14;;;;;;;7.40;5.70;;;;;;;27.24;100.00;100816.92;109349;1251;72678;-63
2023/08/16 03:45:43;;;;;;;6.90;5.30;;;;;;;28.45;100.00;100792.16;109392;1251;60134;-64
2023/08/16 03:48:10;;;;;;;7.60;6.30;;;;;;;29.59;100.00;100773.35;109356;1250;58855;-63
2023/08/16 03:50:39;;;;;;;6.70;5.70;;;;;;;30.46;100.00;100751.65;109319;1251;73935;-63
2023/08/16 03:53:06;;;;;;;7.70;5.70;;;;;;;31.27;100.00;100748.70;109289;1251;66988;-63
2023/08/16 03:55:34;;;;;;;7.20;5.40;;;;;;;31.94;100.00;100746.09;109364;1251;73102;-63
2023/08/16 03:58:03;;;;;;;10.20;4.90;;;;;;;32.57;100.00;100746.30;109368;1251;58841;-63
2023/08/16 04:00:30;;;;;;;6.00;4.30;;;;;;;33.15;100.00;100747.70;109331;1251;60664;-64
2023/08/16 04:02:58;;;;;;;6.00;4.90;;;;;;;33.74;100.00;100749.84;109333;1251;73954;-66
2023/08/16 04:05:26;;;;;;;5.10;4.60;;;;;;;34.34;100.00;100749.11;109397;1251;65537;-63
2023/08/16 04:07:54;;;;;;;5.90;4.60;;;;;;;34.90;100.00;100746.39;109372;1251;63837;-64
2023/08/16 04:10:22;;;;;;;6.80;4.20;;;;;;;35.46;100.00;100746.00;109354;1251;58048;-65
2023/08/16 04:12:49;;;;;;;5.30;4.50;;;;;;;35.85;100.00;100746.50;109398;1251;58213;-63
2023/08/16 04:15:17;;;;;;;5.00;4.50;;;;;;;36.11;100.00;100748.91;109366;1251;63823;-64
2023/08/16 04:17:45;;;;;;;7.30;4.40;;;;;;;36.42;99.06;100747.92;109385;1251;58705;-64
2023/08/16 04:20:13;;;;;;;6.00;4.80;;;;;;;36.79;94.77;100747.69;109332;1251;63743;-66
2023/08/16 04:22:41;;;;;;;5.90;5.20;;;;;;;37.24;88.42;100747.68;109367;1254;58500;-64
2023/08/16 04:25:09;;;;;;;7.10;6.10;;;;;;;37.69;81.36;100750.14;109321;1251;58608;-65
2023/08/16 04:27:37;;;;;;;9.30;5.10;;;;;;;38.10;75.25;100747.92;109436;1251;64938;-64
2023/08/16 04:30:06;;;;;;;5.10;4.40;;;;;;;38.57;69.78;100749.34;109371;1251;58384;-67
2023/08/16 04:32:34;;;;;;;6.50;5.90;;;;;;;39.00;64.39;100747.38;109344;1254;64278;-64
2023/08/16 04:35:05;;;;;;;6.20;5.20;;;;;;;39.39;59.79;100744.27;109260;1251;58808;-65
2023/08/16 04:37:33;;;;;;;7.60;5.30;;;;;;;39.72;55.68;100747.73;109383;1251;58656;-64
2023/08/16 04:40:00;;;;;;;6.30;5.40;;;;;;;39.99;52.53;100748.48;109355;1251;64984;-64
2023/08/16 04:42:30;;;;;;;6.70;6.00;;;;;;;40.27;49.80;100747.41;109337;1251;58311;-64
2023/08/16 04:45:03;;;;;;;8.80;5.60;;;;;;;40.57;47.46;100747.05;109318;1251;63864;-65
2023/08/16 04:47:31;;;;;;;7.20;5.50;;;;;;;40.89;45.36;100747.05;109347;1250;58418;-64
2023/08/16 04:49:59;;;;;;;8.00;6.00;;;;;;;41.19;44.35;100744.16;109389;1251;58218;-64
2023/08/16 04:52:28;;;;;;;7.10;5.70;;;;;;;41.48;42.89;100744.54;109370;1251;63714;-64
2023/08/16 04:54:56;;;;;;;6.40;5.30;;;;;;;41.76;41.40;100743.52;109331;1252;58707;-66
2023/08/16 04:57:23;;;;;;;10.30;6.10;;;;;;;42.13;40.00;100741.81;109368;1251;63900;-64
2023/08/16 04:59:53;;;;;;;6.60;5.30;;;;;;;42.29;39.21;100747.83;109324;1251;58649;-64
2023/08/16 05:02:21;;;;;;;9.90;5.90;;;;;;;42.43;38.77;100747.23;109326;1250;58600;-65
2023/08/16 05:04:49;;;;;;;6.70;5.70;;;;;;;42.57;37.82;100745.77;109348;1251;64970;-65
2023/08/16 05:07:17;;;;;;;6.60;4.60;;;;;;;42.70;37.33;100751.14;109332;1251;58787;-65
2023/08/16 05:09:44;;;;;;;8.00;5.20;;;;;;;42.89;37.46;100749.50;109395;1251;62428;-64
2023/08/16 05:12:12;;;;;;;8.60;5.70;;;;;;;43.05;35.89;100749.66;109336;1251;58174;-65
2023/08/16 05:14:40;;;;;;;5.70;5.00;;;;;;;42.94;35.38;100749.02;109352;1254;58499;-64
2023/08/16 05:17:08;;;;;;;7.50;5.80;;;;;;;42.62;35.69;100749.84;109340;1251;64981;-64
2023/08/16 05:19:36;;;;;;;7.40;5.80;;;;;;;42.38;35.98;100746.05;109358;1251;58260;-64
2023/08/16 05:22:04;;;;;;;7.10;5.70;;;;;;;42.26;36.93;100746.73;109362;1251;62460;-66
2023/08/16 05:24:31;;;;;;;6.90;5.70;;;;;;;42.34;37.08;100744.78;109365;1251;58636;-64
2023/08/16 05:26:59;;;;;;;7.00;5.30;;;;;;;42.61;37.13;100741.39;109345;1251;58061;-66
2023/08/16 05:29:26;;;;;;;6.80;5.50;;;;;;;42.83;36.28;100742.52;109362;1253;64995;-63
2023/08/16 05:31:57;;;;;;;7.90;5.90;;;;;;;43.04;35.22;100743.31;109413;1251;58329;-64
2023/08/16 05:34:24;;;;;;;7.40;5.50;;;;;;;43.22;34.84;100744.16;109293;1251;63827;-65
2023/08/16 05:36:53;;;;;;;7.10;5.00;;;;;;;43.39;34.66;100740.22;109388;1254;58157;-65
2023/08/16 05:39:22;;;;;;;7.20;5.60;;;;;;;43.58;33.99;100736.89;109375;1251;58581;-63
2023/08/16 05:41:50;;;;;;;6.80;5.90;;;;;;;43.63;33.43;100737.27;109369;1251;65023;-64
2023/08/16 05:44:17;;;;;;;7.40;5.10;;;;;;;43.60;33.32;100735.55;109332;1250;58439;-66
2023/08/16 05:46:45;;;;;;;7.90;6.00;;;;;;;43.62;33.54;100737.27;109342;1251;62491;-64
2023/08/16 05:49:13;;;;;;;8.30;5.40;;;;;;;43.63;34.06;100738.36;109333;1251;58207;-65
2023/08/16 05:51:40;;;;;;;10.10;5.40;;;;;;;43.82;33.93;100741.60;109380;1251;58556;-63
2023/08/16 05:54:08;;;;;;;5.90;5.20;;;;;;;44.10;32.67;100737.94;109346;1251;63714;-65
2023/08/16 05:56:37;;;;;;;7.40;5.60;;;;;;;44.30;32.21;100736.20;109419;1251;58272;-63
2023/08/16 05:59:05;;;;;;;7.40;5.80;;;;;;;44.38;31.92;100731.29;109344;1253;62871;-65
2023/08/16 06:01:32;;;;;;;7.20;6.00;;;;;;;44.31;31.68;100732.11;109341;1251;58413;-63
2023/08/16 06:04:00;;;;;;;7.40;5.50;;;;;;;44.08;31.84;100729.88;109369;1251;58311;-66
2023/08/16 06:06:28;;;;;;;7.00;5.10;;;;;;;43.99;32.65;100732.59;109373;1251;65001;-64
2023/08/16 06:08:55;;;;;;;7.10;6.10;;;;;;;44.12;31.96;100730.08;109392;1251;58456;-64
2023/08/16 06:11:23;;;;;;;5.90;5.30;;;;;;;44.27;31.69;100725.93;109359;1251;62563;-66
2023/08/16 06:13:51;;;;;;;5.70;5.10;;;;;;;44.18;30.81;100724.95;109351;1251;58220;-63
2023/08/16 06:16:18;;;;;;;5.40;4.80;;;;;;;43.57;30.91;100727.62;109356;1250;58529;-64
2023/08/16 06:18:46;;;;;;;6.40;5.00;;;;;;;42.90;32.23;100729.52;109349;1251;63718;-63
2023/08/16 06:21:14;;;;;;;6.10;5.50;;;;;;;42.44;33.38;100731.34;109353;1250;58233;-66
2023/08/16 06:23:42;;;;;;;7.00;4.90;;;;;;;42.16;34.37;100728.20;109407;1251;64535;-64
2023/08/16 06:26:09;;;;;;;7.80;4.70;;;;;;;42.27;35.01;100728.87;109327;1251;58768;-65
2023/08/16 06:28:37;;;;;;;7.00;6.30;;;;;;;42.42;35.09;100731.48;109380;1251;58209;-64
2023/08/16 06:31:04;;;;;;;10.80;6.10;;;;;;;42.46;35.57;100730.33;109405;1251;65020;-64
2023/08/16 06:33:32;;;;;;;6.40;5.50;;;;;;;42.64;35.33;100730.20;109362;1251;58182;-65
2023/08/16 06:36:00;;;;;;;5.40;4.90;;;;;;;42.82;35.34;100729.83;109383;1251;63821;-63
2023/08/16 06:38:27;;;;;;;6.40;5.10;;;;;;;42.99;34.93;100727.63;109299;1250;58622;-66
2023/08/16 06:40:55;;;;;;;7.10;4.90;;;;;;;43.28;33.56;100725.80;109365;1251;58347;-63
2023/08/16 06:43:23;;;;;;;5.80;5.20;;;;;;;43.76;33.23;100725.30;109393;1251;63885;-65
2023/08/16 06:45:51;;;;;;;5.50;4.90;;;;;;;44.16;32.90;100722.60;109368;1251;58648;-63
2023/08/16 06:48:18;;;;;;;8.50;5.30;;;;;;;44.38;32.31;100722.18;109357;1251;62579;-66
2023/08/16 06:50:46;;;;;;;7.40;4.90;;;;;;;44.54;31.13;100718.21;109348;1253;58235;-64
2023/08/16 06:53:14;;;;;;;6.40;4.50;;;;;;;44.63;29.85;100717.69;109429;1251;58672;-63
2023/08/16 06:55:41;;;;;;;7.80;4.80;;;;;;;44.75;28.95;100714.22;109308;1251;65043;-65
2023/08/16 06:58:09;;;;;;;4.70;4.30;;;;;;;44.84;28.53;100711.46;109384;1251;58459;-63
2023/08/16 07:00:36;;;;;;;5.70;4.70;;;;;;;44.75;28.28;100713.44;109314;1251;62517;-65
2023/08/16 07:03:04;;;;;;;4.70;4.20;;;;;;;44.24;28.23;100710.06;109359;1253;58183;-63
2023/08/16 07:05:32;;;;;;;5.60;4.20;;;;;;;43.45;28.22;100711.04;109356;1251;58098;-64
2023/08/16 07:07:59;;;;;;;6.80;4.20;;;;;;;42.94;30.18;100710.56;109349;1251;64770;-63
2023/08/16 07:10:27;;;;;;;5.80;4.30;;;;;;;42.94;31.01;100711.64;109359;1251;58436;-66
2023/08/16 07:12:55;;;;;;;6.60;4.40;;;;;;;43.00;31.53;100710.39;109333;1251;63874;-64
2023/08/16 07:15:23;;;;;;;5.20;4.20;;;;;;;42.77;32.17;100711.10;109380;1251;58218;-64
2023/08/16 07:17:50;;;;;;;4.80;3.50;;;;;;;42.67;32.25;100708.27;109325;1251;58558;-65
2023/08/16 07:20:18;;;;;;;4.50;3.80;;;;;;;42.85;30.77;100708.44;109355;1251;63695;-63
2023/08/16 07:22:46;;;;;;;6.60;3.80;;;;;;;42.86;30.53;100708.12;109329;1251;58185;-64
2023/08/16 07:25:13;;;;;;;5.00;4.20;;;;;;;42.58;31.87;100713.35;109400;1251;63809;-65
2023/08/16 07:27:41;;;;;;;6.00;4.60;;;;;;;42.68;31.78;100712.90;109353;1251;58084;-66
2023/08/16 07:30:09;;;;;;;7.90;4.60;;;;;;;42.94;30.61;100709.77;109394;1251;58323;-63
2023/08/16 07:32:36;;;;;;;4.10;3.60;;;;;;;42.95;30.76;100710.23;109343;1250;65011;-65
2023/08/16 07:35:04;;;;;;;6.50;4.50;;;;;;;42.99;30.65;100709.30;109380;1254;58574;-63
2023/08/16 07:37:32;;;;;;;4.80;4.30;;;;;;;43.02;29.08;100705.85;109392;1251;63819;-63
2023/08/16 07:40:00;;;;;;;8.60;4.50;;;;;;;42.71;29.12;100706.63;109342;1251;58654;-63
2023/08/16 07:42:28;;;;;;;5.30;3.80;;;;;;;42.40;30.00;100707.38;109325;1251;58718;-65
2023/08/16 07:44:58;;;;;;;5.00;3.90;;;;;;;42.20;29.65;100708.03;109363;1251;64390;-64
2023/08/16 07:47:27;;;;;;;5.20;4.10;;;;;;;41.95;29.85;100709.13;109366;1251;58208;-63
2023/08/16 07:49:55;;;;;;;7.50;4.40;;;;;;;41.72;30.20;100706.42;109321;1251;71418;-64
2023/08/16 07:52:23;;;;;;;4.40;3.60;;;;;;;41.35;30.98;100705.42;109357;1251;58158;-65
2023/08/16 07:54:51;;;;;;;4.50;3.80;;;;;;;40.99;31.42;100703.61;109413;1251;58246;-63
2023/08/16 07:57:20;;;;;;;3.30;3.00;;;;;;;40.88;32.49;100702.81;109379;1251;63687;-62
2023/08/16 07:59:48;;;;;;;5.00;3.40;;;;;;;40.88;32.23;100698.44;109340;1251;58387;-65
2023/08/16 08:02:16;;;;;;;5.80;3.60;;;;;;;40.79;32.46;100700.32;109372;1251;64386;-64
2023/08/16 08:04:45;;;;;;;4.40;3.20;;;;;;;40.78;32.95;100702.18;109306;1251;58617;-63
2023/08/16 08:07:13;;;;;;;3.80;2.40;;;;;;;40.58;31.30;100698.27;109428;1251;58061;-63
2023/08/16 08:09:40;;;;;;;5.00;2.80;;;;;;;40.12;31.10;100695.81;109329;1250;64947;-64
2023/08/16 08:12:08;;;;;;;2.90;2.40;;;;;;;39.67;31.57;100694.46;109340;1251;58197;-62
2023/08/16 08:14:35;;;;;;;6.00;2.80;;;;;;;39.35;34.51;100694.73;109325;1251;63722;-63
2023/08/16 08:17:03;;;;;;;5.00;2.40;;;;;;;39.53;35.89;100691.63;109375;1251;58184;-63
2023/08/16 08:19:31;;;;;;;3.50;2.20;;;;;;;39.92;33.76;100691.67;109392;1251;58209;-63
2023/08/16 08:21:59;;;;;;;2.80;2.00;;;;;;;39.95;33.54;100690.30;109359;1251;63695;-62
2023/08/16 08:24:27;;;;;;;5.20;4.70;;;;;;;39.80;32.19;100688.65;109347;1253;58331;-64
2023/08/16 08:26:57;;;;;;;4.90;3.00;;;;;;;39.53;33.81;100687.19;109369;1250;64400;-63
2023/08/16 08:29:25;;;;;;;3.50;2.70;;;;;;;39.57;35.18;100685.22;109376;1251;58652;-65
2023/08/16 08:31:56;;;;;;;3.80;2.30;;;;;;;39.85;32.68;100688.63;109375;1251;58693;-62
2023/08/16 08:34:26;;;;;;;3.50;2.80;;;;;;;39.74;31.92;100686.70;109375;1251;63713;-63
2023/08/16 08:36:54;;;;;;;3.60;2.40;;;;;;;39.47;34.15;100687.18;109407;1251;59446;-62
2023/08/16 08:39:22;;;;;;;4.50;2.60;;;;;;;39.54;33.66;100683.05;109373;1251;63868;-64
2023/08/16 08:41:50;;;;;;;5.10;2.50;;;;;;;39.73;33.04;100682.08;109324;1250;58597;-62
2023/08/16 08:44:17;;;;;;;4.60;2.40;;;;;;;39.90;33.41;100681.03;109374;1251;58466;-61
2023/08/16 08:46:46;;;;;;;3.50;2.30;;;;;;;39.96;32.53;100680.27;109349;1251;65050;-64
2023/08/16 08:49:15;;;;;;;3.90;2.40;;;;;;;39.61;32.80;100679.73;109329;1251;58696;-65
2023/08/16 08:51:43;;;;;;;3.50;2.10;;;;;;;39.36;34.02;100679.55;109395;1251;64486;-63
2023/08/16 08:54:11;;;;;;;5.00;2.60;;;;;;;39.54;34.06;100675.58;109366;1251;58229;-62
2023/08/16 08:56:40;;;;;;;3.90;2.40;;;;;;;39.82;34.49;100673.46;109339;1251;58635;-63
2023/08/16 08:59:07;;;;;;;4.10;2.70;;;;;;;39.89;32.43;100673.86;109225;1257;63695;-64
2023/08/16 09:01:43;;;;;;;3.50;2.60;;;;;;;39.66;32.87;100674.73;109401;1251;58590;-62
2023/08/16 09:04:13;;;;;;;3.80;2.30;;;;;;;39.74;34.19;100670.95;109378;1251;63753;-64
2023/08/16 09:06:41;;;;;;;3.90;2.20;;;;;;;40.06;34.29;100670.47;109353;1253;59602;-63
2023/08/16 09:09:09;;;;;;;2.70;1.90;;;;;;;40.45;33.62;100666.34;109331;1251;58185;-64
2023/08/16 09:11:37;;;;;;;5.90;3.20;;;;;;;40.90;31.87;100665.66;109289;1251;63712;-62
2023/08/16 09:14:05;;;;;;;3.30;2.40;;;;;;;40.90;31.13;100661.36;109226;1250;58458;-65
2023/08/16 09:16:32;;;;;;;3.40;2.80;;;;;;;40.69;30.57;100658.70;109250;1251;63235;-62
2023/08/16 09:19:00;;;;;;;4.00;2.60;;;;;;;40.15;30.73;100658.63;109341;1251;58253;-65
2023/08/16 09:21:29;;;;;;;5.00;2.30;;;;;;;39.41;32.25;100659.98;109372;1251;58387;-63
2023/08/16 09:23:58;;;;;;;3.70;2.40;;;;;;;38.90;33.99;100663.03;109371;1250;63885;-63
2023/08/16 09:26:29;;;;;;;3.90;2.50;;;;;;;38.69;33.71;100664.30;109341;1251;58753;-64
2023/08/16 09:29:00;;;;;;;3.50;2.10;;;;;;;38.66;33.75;100659.90;109297;1255;72714;-66
2023/08/16 09:31:30;;;;;;;4.10;2.30;;;;;;;38.59;33.78;100659.16;109390;1251;58247;-63
2023/08/16 09:33:59;;;;;;;3.90;2.00;;;;;;;38.34;33.82;100659.48;109377;1251;58424;-65
2023/08/16 09:36:36;;;;;;;4.30;2.20;;;;;;;38.06;33.81;100659.03;109317;1251;64332;-62
2023/08/16 09:39:10;;;;;;;6.10;2.40;;;;;;;37.97;35.25;100665.38;109363;1251;58694;-62
2023/08/16 09:41:49;;;;;;;4.60;2.40;;;;;;;37.82;36.24;100662.11;109373;1251;63792;-63
2023/08/16 09:44:36;;;;;;;4.00;2.50;;;;;;;37.43;38.27;100662.52;109389;1250;58692;-62
2023/08/16 09:47:14;;;;;;;3.20;2.40;;;;;;;37.05;40.22;100664.83;109221;1251;244354;-62
2023/08/16 09:49:49;;;;;;;4.70;2.30;;;;;;;36.60;41.18;100666.48;109412;1250;63841;-62
2023/08/16 09:52:16;;;;;;;8.00;2.80;;;;;;;36.35;43.04;100666.04;109333;1251;58712;-61
2023/08/16 09:54:48;;;;;;;3.70;2.30;;;;;;;36.35;41.93;100665.20;109284;1251;62519;-62
2023/08/16 09:57:16;;;;;;;3.70;2.70;;;;;;;36.49;41.03;100660.39;109283;1251;58074;-64
2023/08/16 09:59:46;;;;;;;5.60;2.70;;;;;;;36.76;39.65;100654.92;109401;1250;58818;-63
2023/08/16 10:02:14;;;;;;;6.20;2.30;;;;;;;36.91;37.05;100655.16;109317;1251;63882;-62
2023/08/16 10:04:42;;;;;;;4.00;2.20;;;;;;;37.02;36.23;100651.57;109428;1251;58681;-63
2023/08/16 10:07:12;;;;;;;3.50;2.00;;;;;;;37.34;36.79;100654.23;109362;1252;63787;-65
2023/08/16 10:09:41;;;;;;;3.60;2.50;;;;;;;38.03;36.96;100655.77;109369;1250;58663;-65
2023/08/16 10:12:10;;;;;;;2.80;2.10;;;;;;;38.80;35.02;100654.75;109367;1251;58763;-62
2023/08/16 10:14:40;;;;;;;3.50;2.00;;;;;;;39.22;32.83;100647.87;109396;1251;65104;-63
2023/08/16 10:17:09;;;;;;;3.70;2.20;;;;;;;39.40;31.26;100641.65;109390;1251;58611;-63
2023/08/16 10:19:37;;;;;;;4.50;2.90;;;;;;;39.33;31.00;100644.59;109236;1251;64384;-64
2023/08/16 10:22:22;;;;;;;4.20;1.90;;;;;;;39.15;31.41;100643.32;109408;1251;58309;-63
2023/08/16 10:24:53;;;;;;;3.40;2.20;;;;;;;39.23;31.28;100642.35;109418;1251;58204;-63
2023/08/16 10:27:21;;;;;;;3.90;2.10;;;;;;;39.31;31.23;100641.84;109168;1251;65053;-64
2023/08/16 10:29:48;;;;;;;3.50;2.40;;;;;;;39.36;30.86;100636.92;109320;1251;58642;-64
2023/08/16 10:32:16;;;;;;;3.60;2.20;;;;;;;39.60;30.75;100637.23;109332;1251;64610;-63
2023/08/16 10:34:44;;;;;;;2.90;2.00;;;;;;;39.67;30.87;100638.48;109343;1251;58604;-63
2023/08/16 10:37:12;;;;;;;6.40;2.90;;;;;;;39.30;31.23;100639.23;109388;1250;58536;-65
2023/08/16 10:39:39;;;;;;;4.40;2.80;;;;;;;38.75;31.71;100640.73;109323;1251;63630;-64
2023/08/16 10:42:07;;;;;;;3.70;2.90;;;;;;;38.22;32.97;100640.81;109234;1251;58699;-63
2023/08/16 10:44:35;;;;;;;2.90;2.00;;;;;;;37.92;34.57;100634.17;109364;1251;63843;-63
2023/08/16 10:47:03;;;;;;;5.90;2.80;;;;;;;37.87;34.82;100631.75;109379;1251;58189;-63
2023/08/16 10:49:37;;;;;;;4.30;2.00;;;;;;;37.99;34.62;100630.11;109325;1251;58079;-64
2023/08/16 10:52:05;;;;;;;4.90;2.50;;;;;;;37.99;33.83;100630.75;109352;1251;64346;-63
2023/08/16 10:54:33;;;;;;;3.60;1.80;;;;;;;37.87;33.96;100631.89;109392;1251;58288;-63
2023/08/16 10:57:02;;;;;;;4.60;2.50;;;;;;;37.80;33.75;100631.05;109335;1250;62523;-66
2023/08/16 10:59:40;;;;;;;6.30;3.80;;;;;;;37.82;34.09;100626.66;109381;1250;58602;-63
2023/08/16 11:02:18;;;;;;;3.20;2.20;;;;;;;38.09;35.23;100624.08;109332;1251;58453;-62
2023/08/16 11:04:46;;;;;;;4.60;2.10;;;;;;;38.50;33.43;100620.70;109356;1251;64999;-63
2023/08/16 11:07:15;;;;;;;3.30;2.20;;;;;;;38.76;32.32;100614.83;109337;1253;58607;-63
2023/08/16 11:09:42;;;;;;;3.60;2.40;;;;;;;38.76;33.14;100611.55;109316;1251;64310;-63
2023/08/16 11:12:10;;;;;;;5.50;2.60;;;;;;;38.61;33.27;100615.66;109363;1251;58204;-61
2023/08/16 11:14:38;;;;;;;4.10;2.90;;;;;;;38.08;32.82;100613.16;109403;1251;58289;-62
2023/08/16 11:17:05;;;;;;;3.60;2.40;;;;;;;37.23;34.37;100618.39;109428;1251;63765;-64
2023/08/16 11:19:33;;;;;;;3.40;2.50;;;;;;;36.37;36.64;100618.94;109325;1253;58667;-62